LQBK

Banja Luka International Airport

Airport
ICAO code
LQBK
IATA Code
BNX
Summary
ICAO Region
EUR
ICAO Territory
Location

Kobatovci, Republika Srpska

Serving
Banja Luka
Elevation
400 ft
Coordinates
44° 56' 34" N , 17° 17' 47" E
KCC
Cfa
Metar
Observation
LQBK 110830Z VRB03KT CAVOK 22/13 Q1020 NOSIG
Station
Banja Luka
Date/Time
2022-08-11 08:30:00
Wind speed
03 kts
Lowest cloud amount
clouds and visibility OK
Temperature
22°C
Dew point
13°C
Humidity
56%
QNH
1020 hPa
Weather condition
n/a

Banja Luka International Airport, also known as Mahovljani Airport, is an airport located 11 nm north northeast of the city of Banja Luka.

Climatology

Humid subtropical climate (Köppen climate classification Cfa)

Runways

Designator Length Width Surface Rops
17/35 2503 45 ASP Yes/Yes

Airport map

Aerial View

SKYbrary Partners:

Safety knowledge contributed by: